createdAt,value
2019-01-28T00:01:03.695Z,1.30
2019-01-28T00:03:33.114Z,1.40
2019-01-28T00:06:03.454Z,1.40
2019-01-28T00:08:34.145Z,1.40
2019-01-28T00:11:03.705Z,1.40
2019-01-28T00:13:33.030Z,1.50
2019-01-28T00:16:03.019Z,1.50
2019-01-28T00:18:32.537Z,1.50
2019-01-28T00:21:02.028Z,1.60
2019-01-28T00:23:31.442Z,1.60
2019-01-28T00:26:00.753Z,1.60
2019-01-28T00:28:30.343Z,1.70
2019-01-28T00:31:00.356Z,1.70
2019-01-28T00:33:29.686Z,1.70
2019-01-28T00:35:59.232Z,1.70
2019-01-28T00:38:28.637Z,1.70
2019-01-28T00:40:58.024Z,1.80
2019-01-28T00:43:27.337Z,1.90
2019-01-28T00:45:56.795Z,1.90
2019-01-28T00:48:26.919Z,1.90
2019-01-28T00:50:56.219Z,1.90
2019-01-28T00:53:29.150Z,1.90
2019-01-28T00:55:58.141Z,2.00
2019-01-28T00:58:27.461Z,2.10
2019-01-28T01:00:57.211Z,2.10
2019-01-28T01:03:27.326Z,2.10
2019-01-28T01:05:57.144Z,2.10
2019-01-28T01:08:27.670Z,2.10
2019-01-28T01:10:56.996Z,2.10
2019-01-28T01:13:26.566Z,2.10
2019-01-28T01:15:55.911Z,2.10
2019-01-28T01:18:25.280Z,2.10
2019-01-28T01:20:54.762Z,2.00
2019-01-28T01:23:24.935Z,2.00
2019-01-28T01:25:54.955Z,2.00
2019-01-28T01:28:24.563Z,2.00
2019-01-28T01:30:54.466Z,2.10
2019-01-28T01:33:23.798Z,2.00
2019-01-28T01:35:53.124Z,1.80
2019-01-28T01:38:22.468Z,1.80
2019-01-28T01:40:51.945Z,1.70
2019-01-28T01:43:21.246Z,1.60
2019-01-28T01:45:50.775Z,1.50
2019-01-28T01:48:20.087Z,1.40
2019-01-28T01:50:49.643Z,1.40
2019-01-28T01:53:19.363Z,1.40
2019-01-28T01:55:49.392Z,1.30
2019-01-28T01:58:19.136Z,1.30
2019-01-28T02:00:48.776Z,1.20
2019-01-28T02:03:18.080Z,1.20
2019-01-28T02:05:47.432Z,1.10
2019-01-28T02:08:17.784Z,1.00
2019-01-28T02:10:48.690Z,0.90
2019-01-28T02:13:18.355Z,0.90
2019-01-28T02:15:47.734Z,0.90
2019-01-28T02:18:17.449Z,0.80
2019-01-28T02:20:47.113Z,0.80
2019-01-28T02:23:16.508Z,0.80
2019-01-28T02:25:45.948Z,0.70
2019-01-28T02:28:15.792Z,0.80
2019-01-28T02:30:45.950Z,0.80
2019-01-28T02:33:15.527Z,0.80
2019-01-28T02:35:45.027Z,0.80
2019-01-28T02:38:14.419Z,0.80
2019-01-28T02:40:43.827Z,0.80
2019-01-28T02:43:13.357Z,0.80
2019-01-28T02:45:42.706Z,0.90
2019-01-28T02:48:12.325Z,0.90
2019-01-28T02:50:41.968Z,0.90
2019-01-28T02:53:11.949Z,0.90
2019-01-28T02:55:41.463Z,0.90
2019-01-28T02:58:10.869Z,0.80
2019-01-28T03:00:40.282Z,0.80
2019-01-28T03:03:09.877Z,0.80
2019-01-28T03:05:39.464Z,0.90
2019-01-28T03:08:08.785Z,0.80
2019-01-28T03:10:38.250Z,0.80
2019-01-28T03:13:08.473Z,0.70
2019-01-28T03:15:37.784Z,0.70
2019-01-28T03:18:07.129Z,0.70
2019-01-28T03:20:36.477Z,0.70
2019-01-28T03:23:06.728Z,0.70
2019-01-28T03:25:36.327Z,0.70
2019-01-28T03:28:05.823Z,0.60
2019-01-28T03:30:35.241Z,0.60
2019-01-28T03:33:04.769Z,0.70
2019-01-28T03:35:34.066Z,0.70
2019-01-28T03:38:03.481Z,0.60
2019-01-28T03:40:32.904Z,0.70
2019-01-28T03:43:02.291Z,0.70
2019-01-28T03:45:31.797Z,0.60
2019-01-28T03:48:01.282Z,0.60
2019-01-28T03:50:31.135Z,0.50
2019-01-28T03:53:01.661Z,0.50
2019-01-28T03:55:31.651Z,0.40
2019-01-28T03:58:01.382Z,0.40
2019-01-28T04:00:30.787Z,0.30
2019-01-28T04:03:00.120Z,0.30
2019-01-28T04:05:29.515Z,0.30
2019-01-28T04:07:59.447Z,0.30
2019-01-28T04:10:29.251Z,0.30
2019-01-28T04:13:00.318Z,0.30
2019-01-28T04:15:32.520Z,0.30
2019-01-28T04:18:01.895Z,0.20
2019-01-28T04:20:31.411Z,0.20
2019-01-28T04:23:00.744Z,0.20
2019-01-28T04:25:30.319Z,0.20
2019-01-28T04:28:00.004Z,0.20
2019-01-28T04:30:29.467Z,0.20
2019-01-28T04:32:58.791Z,0.10
2019-01-28T04:35:28.568Z,0.20
2019-01-28T04:37:58.125Z,0.20
2019-01-28T04:40:27.476Z,0.20
2019-01-28T04:42:56.821Z,0.20
2019-01-28T04:45:26.263Z,0.10
2019-01-28T04:47:55.900Z,0.10
2019-01-28T04:50:25.231Z,-0.10
2019-01-28T04:52:54.798Z,-0.10
2019-01-28T04:55:24.403Z,-0.10
2019-01-28T04:57:53.983Z,-0.10
2019-01-28T05:00:26.906Z,-0.10
2019-01-28T05:02:56.787Z,-0.10
2019-01-28T05:05:26.109Z,0.00
2019-01-28T05:07:55.535Z,0.00
2019-01-28T05:10:25.013Z,0.10
2019-01-28T05:12:54.385Z,0.10
2019-01-28T05:15:24.758Z,0.20
2019-01-28T05:17:55.548Z,0.20
2019-01-28T05:20:25.516Z,0.20
2019-01-28T05:22:55.109Z,0.30
2019-01-28T05:25:24.794Z,0.30
2019-01-28T05:27:54.273Z,0.30
2019-01-28T05:30:26.631Z,0.30
2019-01-28T05:32:56.433Z,0.20
2019-01-28T05:35:26.322Z,0.30
2019-01-28T05:37:56.061Z,0.30
2019-01-28T05:40:25.891Z,0.20
2019-01-28T05:42:55.339Z,0.20
2019-01-28T05:45:25.601Z,0.20
2019-01-28T05:47:55.373Z,0.40
2019-01-28T05:50:24.686Z,0.50
2019-01-28T05:52:54.498Z,0.50
2019-01-28T05:55:23.883Z,0.60
2019-01-28T05:57:53.252Z,0.70
2019-01-28T06:00:26.349Z,0.80
2019-01-28T06:02:55.772Z,0.90
2019-01-28T06:05:26.115Z,1.00
2019-01-28T06:07:55.570Z,1.00
2019-01-28T06:10:25.244Z,1.00
2019-01-28T06:12:55.370Z,1.00
2019-01-28T06:15:24.670Z,1.00
2019-01-28T06:17:54.139Z,0.90
2019-01-28T06:20:26.655Z,1.00
2019-01-28T06:22:56.801Z,1.10
2019-01-28T06:25:26.099Z,1.10
2019-01-28T06:27:55.436Z,1.10
2019-01-28T06:30:26.782Z,1.20
2019-01-28T06:32:56.859Z,1.20
2019-01-28T06:35:26.278Z,1.30
2019-01-28T06:37:56.806Z,1.30
2019-01-28T06:40:29.129Z,1.30
2019-01-28T06:42:59.046Z,1.30
2019-01-28T06:45:28.508Z,1.30
2019-01-28T06:47:57.958Z,1.30
2019-01-28T06:50:27.331Z,1.40
2019-01-28T06:52:56.690Z,1.40
2019-01-28T06:55:26.570Z,1.50
2019-01-28T06:57:56.580Z,1.60
2019-01-28T07:00:29.544Z,1.70
2019-01-28T07:02:59.230Z,1.70
2019-01-28T07:05:28.903Z,1.60
2019-01-28T07:07:58.222Z,1.70
2019-01-28T07:10:27.665Z,1.60
2019-01-28T07:12:56.969Z,1.70
2019-01-28T07:15:26.342Z,1.80
2019-01-28T07:17:55.908Z,1.90
2019-01-28T07:20:30.341Z,1.90
2019-01-28T07:23:01.227Z,2.00
2019-01-28T07:25:31.982Z,2.00
2019-01-28T07:28:01.466Z,2.00
2019-01-28T07:30:32.984Z,2.00
2019-01-28T07:33:02.441Z,2.10
2019-01-28T07:35:32.397Z,2.10
2019-01-28T07:38:01.700Z,2.10
2019-01-28T07:40:31.095Z,2.00
2019-01-28T07:43:01.003Z,2.00
2019-01-28T07:45:32.315Z,2.10
2019-01-28T07:48:02.937Z,2.00
2019-01-28T07:50:33.068Z,2.10
2019-01-28T07:53:02.408Z,2.00
2019-01-28T07:55:32.303Z,2.00
2019-01-28T07:58:01.887Z,2.00
2019-01-28T08:00:31.828Z,2.00
2019-01-28T08:03:01.715Z,2.00
2019-01-28T08:05:31.102Z,2.00
2019-01-28T08:08:01.110Z,2.00
2019-01-28T08:10:31.004Z,2.00
2019-01-28T08:13:00.534Z,1.90
2019-01-28T08:15:30.575Z,2.00
2019-01-28T08:18:00.531Z,2.00
2019-01-28T08:20:29.898Z,2.00
2019-01-28T08:23:00.000Z,1.90
2019-01-28T08:25:30.287Z,2.00
2019-01-28T08:27:59.810Z,2.00
2019-01-28T08:30:34.522Z,2.20
2019-01-28T08:33:03.855Z,2.30
2019-01-28T08:35:34.706Z,2.30
2019-01-28T08:38:04.119Z,2.40
2019-01-28T08:40:34.138Z,2.50
2019-01-28T08:43:04.344Z,2.50
2019-01-28T08:45:34.359Z,2.60
2019-01-28T08:48:03.738Z,2.60
2019-01-28T08:50:33.161Z,2.70
2019-01-28T08:53:03.296Z,2.80
2019-01-28T08:55:33.331Z,2.90
2019-01-28T08:58:02.761Z,2.90
2019-01-28T09:00:37.810Z,3.10
2019-01-28T09:03:07.241Z,3.10
2019-01-28T09:05:38.323Z,3.10
2019-01-28T09:08:08.080Z,3.10
2019-01-28T09:10:38.150Z,3.10
2019-01-28T09:13:08.207Z,3.10
2019-01-28T09:15:38.150Z,3.20
2019-01-28T09:18:09.748Z,3.30
2019-01-28T09:20:39.915Z,3.40
2019-01-28T09:23:09.885Z,3.40
2019-01-28T09:25:39.350Z,3.40
2019-01-28T09:28:08.935Z,3.40
2019-01-28T09:30:38.903Z,3.60
2019-01-28T09:33:08.215Z,3.70
2019-01-28T09:35:38.208Z,3.90
2019-01-28T09:38:07.642Z,3.90
2019-01-28T09:40:38.184Z,3.70
2019-01-28T09:43:08.492Z,3.70
2019-01-28T09:45:40.686Z,3.60
2019-01-28T09:48:12.188Z,3.60
2019-01-28T09:50:42.143Z,3.70
2019-01-28T09:53:12.238Z,3.90
2019-01-28T09:55:42.816Z,4.10
2019-01-28T09:58:13.112Z,4.20
2019-01-28T10:00:48.100Z,4.10
2019-01-28T10:03:18.079Z,4.00
2019-01-28T10:05:48.292Z,4.00
2019-01-28T10:08:18.942Z,3.80
2019-01-28T10:10:49.087Z,3.80
2019-01-28T10:13:19.150Z,3.80
2019-01-28T10:15:49.184Z,3.80
2019-01-28T10:18:20.037Z,3.90
2019-01-28T10:20:50.072Z,3.90
2019-01-28T10:23:20.126Z,4.00
2019-01-28T10:25:50.488Z,4.00
2019-01-28T10:28:20.447Z,4.30
2019-01-28T10:30:50.459Z,4.30
2019-01-28T10:33:20.613Z,4.30
2019-01-28T10:35:50.831Z,4.50
2019-01-28T10:38:22.558Z,4.40
2019-01-28T10:40:53.366Z,4.50
2019-01-28T10:43:23.402Z,4.50
2019-01-28T10:45:53.447Z,4.50
2019-01-28T10:48:23.420Z,4.20
2019-01-28T10:50:53.381Z,4.20
2019-01-28T10:53:23.328Z,4.10
2019-01-28T10:55:53.381Z,4.00
2019-01-28T10:58:23.531Z,4.00
2019-01-28T11:00:54.866Z,4.10
2019-01-28T11:03:25.024Z,4.20
2019-01-28T11:05:55.048Z,4.20
2019-01-28T11:08:25.161Z,4.20
2019-01-28T11:10:55.143Z,4.20
2019-01-28T11:13:25.230Z,4.10
2019-01-28T11:15:55.286Z,4.10
2019-01-28T11:18:26.231Z,4.10
2019-01-28T11:20:56.332Z,4.00
2019-01-28T11:23:26.697Z,3.90
2019-01-28T11:25:56.774Z,4.00
2019-01-28T11:28:27.928Z,4.00
2019-01-28T11:30:58.623Z,3.90
2019-01-28T11:33:28.932Z,3.80
2019-01-28T11:36:05.175Z,3.70
2019-01-28T11:38:30.679Z,3.70
2019-01-28T11:41:00.410Z,3.60
2019-01-28T11:43:30.747Z,3.70
2019-01-28T11:46:01.387Z,3.60
2019-01-28T11:48:32.766Z,3.70
2019-01-28T11:51:04.121Z,3.80
2019-01-28T11:53:33.680Z,3.80
2019-01-28T11:56:03.655Z,3.90
2019-01-28T11:58:33.867Z,3.90
2019-01-28T12:01:07.327Z,3.90
2019-01-28T12:06:07.003Z,4.00
2019-01-28T12:08:37.103Z,3.90
2019-01-28T12:11:07.223Z,3.90
2019-01-28T12:13:37.399Z,3.80
2019-01-28T12:16:07.476Z,3.80
2019-01-28T12:18:38.393Z,3.70
2019-01-28T12:21:08.288Z,4.10
2019-01-28T12:23:38.648Z,3.80
2019-01-28T12:26:12.162Z,3.90
2019-01-28T12:28:42.378Z,4.00
2019-01-28T12:31:28.009Z,4.10
2019-01-28T12:33:57.922Z,4.00
2019-01-28T12:36:27.812Z,4.90
2019-01-28T12:38:57.697Z,4.50
2019-01-28T12:41:27.679Z,4.50
2019-01-28T12:43:59.990Z,4.50
2019-01-28T12:46:29.935Z,4.40
2019-01-28T12:48:59.965Z,4.30
2019-01-28T12:51:29.863Z,4.40
2019-01-28T12:53:59.819Z,4.30
2019-01-28T12:56:29.835Z,4.40
2019-01-28T12:58:59.926Z,4.30
2019-01-28T13:01:30.039Z,4.30
2019-01-28T13:03:59.982Z,4.20
2019-01-28T13:06:30.020Z,4.20
2019-01-28T13:08:59.921Z,4.20
2019-01-28T13:11:30.044Z,4.20
2019-01-28T13:14:00.251Z,4.20
2019-01-28T13:16:30.447Z,4.10
2019-01-28T13:19:01.291Z,4.00
2019-01-28T13:21:31.266Z,3.90
2019-01-28T13:24:02.402Z,3.90
2019-01-28T13:26:32.292Z,3.90
2019-01-28T13:31:32.941Z,3.90
2019-01-28T13:34:03.303Z,3.90
2019-01-28T13:46:35.088Z,4.20
2019-01-28T13:49:05.434Z,3.90
2019-01-28T13:51:35.511Z,3.80
2019-01-28T13:56:35.216Z,3.70
2019-01-28T14:01:35.042Z,3.70
2019-01-28T14:04:05.050Z,3.80
2019-01-28T14:06:35.098Z,3.80
2019-01-28T14:09:07.151Z,3.90
2019-01-28T14:11:37.735Z,3.90
2019-01-28T14:14:08.192Z,3.80
2019-01-28T14:16:38.281Z,3.80
2019-01-28T14:19:08.635Z,3.40
2019-01-28T14:21:38.533Z,3.50
2019-01-28T14:24:08.534Z,4.10
2019-01-28T14:26:38.687Z,3.80
2019-01-28T14:31:37.998Z,3.60
2019-01-28T14:34:07.947Z,3.70
2019-01-28T14:36:37.966Z,3.70
2019-01-28T14:39:13.819Z,3.60
2019-01-28T14:41:41.320Z,3.70
2019-01-28T14:44:11.355Z,3.60
2019-01-28T14:46:41.341Z,3.70
2019-01-28T14:49:11.315Z,3.60
2019-01-28T14:51:41.350Z,3.60
2019-01-28T14:54:11.318Z,3.60
2019-01-28T14:56:41.215Z,3.60
2019-01-28T14:59:11.471Z,3.70
2019-01-28T15:01:41.723Z,3.60
2019-01-28T15:04:11.588Z,3.60
2019-01-28T15:06:41.523Z,3.70
2019-01-28T15:09:11.848Z,3.70
2019-01-28T15:11:41.914Z,3.70
2019-01-28T15:14:11.866Z,3.60
2019-01-28T15:16:41.797Z,3.70
2019-01-28T15:19:13.765Z,3.80
2019-01-28T15:21:44.089Z,3.70
2019-01-28T15:24:14.042Z,3.60
2019-01-28T15:26:44.031Z,3.70
2019-01-28T15:29:14.010Z,3.50
2019-01-28T15:31:43.982Z,3.50
2019-01-28T15:34:13.970Z,3.50
2019-01-28T15:36:43.933Z,3.40
2019-01-28T15:39:14.317Z,3.30
2019-01-28T15:41:44.386Z,3.30
2019-01-28T15:44:13.899Z,3.40
2019-01-28T15:46:43.882Z,3.40
2019-01-28T15:49:13.482Z,3.50
2019-01-28T15:51:43.506Z,3.30
2019-01-28T15:54:13.531Z,3.30
2019-01-28T15:56:43.495Z,3.30
2019-01-28T15:59:13.499Z,3.40
2019-01-28T16:01:43.533Z,3.40
2019-01-28T16:04:12.888Z,3.60
2019-01-28T16:06:42.820Z,3.50
2019-01-28T16:09:12.734Z,3.40
2019-01-28T16:11:42.844Z,3.50
2019-01-28T16:14:12.928Z,3.50
2019-01-28T16:16:42.935Z,3.40
2019-01-28T16:19:13.428Z,3.40
2019-01-28T16:21:43.599Z,3.40
2019-01-28T16:24:13.532Z,3.50
2019-01-28T16:26:43.592Z,3.50
2019-01-28T16:29:13.675Z,3.50
2019-01-28T16:31:44.058Z,3.40
2019-01-28T16:34:14.020Z,3.40
2019-01-28T16:36:43.996Z,3.30
2019-01-28T16:39:14.286Z,3.50
2019-01-28T16:41:44.450Z,3.50
2019-01-28T16:44:14.091Z,3.50
2019-01-28T16:46:43.398Z,3.50
2019-01-28T16:49:14.015Z,3.40
2019-01-28T16:51:45.025Z,3.30
2019-01-28T16:54:15.123Z,3.40
2019-01-28T16:56:45.136Z,3.20
2019-01-28T16:59:14.492Z,3.10
2019-01-28T17:01:44.577Z,3.10
2019-01-28T17:04:15.565Z,3.20
2019-01-28T17:06:45.648Z,3.20
2019-01-28T17:09:15.618Z,3.10
2019-01-28T17:11:45.566Z,2.90
2019-01-28T17:14:15.636Z,2.90
2019-01-28T17:16:45.627Z,3.00
2019-01-28T17:19:14.982Z,2.80
2019-01-28T17:21:46.867Z,2.70
2019-01-28T17:24:16.299Z,2.60
2019-01-28T17:26:46.371Z,2.60
2019-01-28T17:29:16.263Z,2.80
2019-01-28T17:31:45.633Z,2.80
2019-01-28T17:34:15.011Z,2.60
2019-01-28T17:36:44.318Z,2.40
2019-01-28T17:39:13.675Z,2.40
2019-01-28T17:41:43.199Z,2.40
2019-01-28T17:44:13.083Z,2.60
2019-01-28T17:46:42.617Z,2.70
2019-01-28T17:49:12.051Z,2.70
2019-01-28T17:51:41.408Z,2.90
2019-01-28T17:54:10.826Z,2.90
2019-01-28T17:56:40.768Z,2.70
2019-01-28T17:59:10.797Z,2.70
2019-01-28T18:01:40.639Z,2.80
2019-01-28T18:04:10.603Z,2.80
2019-01-28T18:06:39.986Z,2.90
2019-01-28T18:09:10.006Z,2.90
2019-01-28T18:11:40.020Z,2.80
2019-01-28T18:14:09.599Z,2.80
2019-01-28T18:16:39.268Z,2.90
2019-01-28T18:19:08.803Z,2.80
2019-01-28T18:21:38.484Z,2.90
2019-01-28T18:24:09.366Z,2.90
2019-01-28T18:26:39.460Z,2.80
2019-01-28T18:29:08.878Z,2.70
2019-01-28T18:31:38.496Z,2.70
2019-01-28T18:34:07.823Z,2.70
2019-01-28T18:36:37.590Z,2.70
2019-01-28T18:39:09.799Z,2.70
2019-01-28T18:41:39.333Z,2.70
2019-01-28T18:44:09.864Z,2.70
2019-01-28T18:46:39.571Z,2.60
2019-01-28T18:49:09.258Z,2.60
2019-01-28T18:51:39.459Z,2.50
2019-01-28T18:54:08.810Z,2.50
2019-01-28T18:56:38.301Z,2.50
2019-01-28T18:59:08.203Z,2.50
2019-01-28T19:01:37.608Z,2.50
2019-01-28T19:04:06.902Z,2.50
2019-01-28T19:06:38.443Z,2.50
2019-01-28T19:09:09.503Z,2.50
2019-01-28T19:11:40.622Z,2.50
2019-01-28T19:14:20.872Z,2.40
2019-01-28T19:16:51.806Z,2.40
2019-01-28T19:19:22.928Z,2.30
2019-01-28T19:21:53.945Z,2.40
2019-01-28T19:24:24.146Z,2.40
2019-01-28T19:27:09.617Z,2.50
2019-01-28T19:29:39.096Z,2.50
2019-01-28T19:32:08.549Z,2.50
2019-01-28T19:34:37.954Z,2.50
2019-01-28T19:37:07.337Z,2.50
2019-01-28T19:39:36.843Z,2.50
2019-01-28T19:42:06.479Z,2.40
2019-01-28T19:44:35.846Z,2.40
2019-01-28T19:47:05.341Z,2.40
2019-01-28T19:49:34.901Z,2.40
2019-01-28T19:54:33.447Z,2.10
2019-01-28T20:02:00.807Z,2.40
2019-01-28T20:07:00.976Z,2.10
2019-01-28T20:11:59.532Z,2.90
2019-01-28T20:21:58.539Z,2.30
2019-01-28T20:26:58.268Z,2.00
2019-01-28T20:29:29.340Z,2.30
2019-01-28T20:36:57.134Z,2.40
2019-01-28T20:39:27.318Z,2.20
2019-01-28T20:41:56.787Z,2.30
2019-01-28T20:44:36.296Z,2.40
2019-01-28T20:47:07.296Z,2.50
2019-01-28T20:49:36.785Z,2.60
2019-01-28T20:52:06.395Z,2.60
2019-01-28T20:54:35.960Z,2.70
2019-01-28T20:57:13.036Z,2.70
2019-01-28T20:59:56.876Z,2.60
2019-01-28T21:02:43.874Z,2.60
2019-01-28T21:05:20.479Z,2.60
2019-01-28T21:07:50.166Z,2.50
2019-01-28T21:10:23.177Z,2.40
2019-01-28T21:12:54.029Z,2.40
2019-01-28T21:15:23.917Z,2.40
2019-01-28T21:17:53.380Z,2.40
2019-01-28T21:20:23.893Z,2.50
2019-01-28T21:22:53.589Z,2.50
2019-01-28T21:25:27.028Z,2.60
2019-01-28T21:27:56.452Z,2.60
2019-01-28T21:30:33.229Z,2.60
2019-01-28T21:33:02.695Z,2.50
2019-01-28T21:35:39.779Z,2.50
2019-01-28T21:38:10.926Z,2.50
2019-01-28T21:40:40.351Z,2.50
2019-01-28T21:43:11.001Z,2.50
2019-01-28T21:45:40.441Z,2.50
2019-01-28T21:48:09.835Z,2.50
2019-01-28T21:50:39.686Z,2.60
2019-01-28T21:53:09.270Z,2.60
2019-01-28T21:55:38.663Z,2.60
2019-01-28T21:58:07.948Z,2.60
2019-01-28T22:00:37.935Z,2.60
2019-01-28T22:03:07.967Z,2.70
2019-01-28T22:05:37.897Z,2.70
2019-01-28T22:08:07.564Z,2.80
2019-01-28T22:10:36.936Z,2.70
2019-01-28T22:13:06.848Z,2.50
2019-01-28T22:15:36.358Z,2.50
2019-01-28T22:18:06.318Z,2.60
2019-01-28T22:20:35.758Z,2.50
2019-01-28T22:23:05.201Z,2.50
2019-01-28T22:25:34.955Z,2.50
2019-01-28T22:28:04.424Z,2.60
2019-01-28T22:30:34.852Z,2.70
2019-01-28T22:33:04.580Z,2.70
2019-01-28T22:35:33.964Z,2.70
2019-01-28T22:38:03.452Z,2.70
2019-01-28T22:40:33.543Z,2.60
2019-01-28T22:43:03.764Z,2.60
2019-01-28T22:45:33.371Z,2.50
2019-01-28T22:48:02.778Z,2.50
2019-01-28T22:50:32.840Z,2.50
2019-01-28T22:53:02.321Z,2.60
2019-01-28T22:55:31.734Z,2.60
2019-01-28T22:58:01.153Z,2.60
2019-01-28T23:00:47.399Z,2.60
2019-01-28T23:03:19.750Z,2.60
2019-01-28T23:05:49.886Z,2.60
2019-01-28T23:08:19.888Z,2.70
2019-01-28T23:10:49.435Z,2.60
2019-01-28T23:13:18.747Z,2.50
2019-01-28T23:15:49.803Z,2.30
2019-01-28T23:18:19.122Z,2.30
2019-01-28T23:20:48.655Z,2.30
2019-01-28T23:23:18.572Z,2.20
2019-01-28T23:25:48.132Z,2.30
2019-01-28T23:28:17.814Z,2.20
2019-01-28T23:30:48.234Z,2.20
2019-01-28T23:33:17.601Z,2.20
2019-01-28T23:35:47.044Z,2.30
2019-01-28T23:38:16.994Z,2.30
2019-01-28T23:40:46.614Z,2.20
2019-01-28T23:43:15.927Z,2.10
2019-01-28T23:45:46.125Z,2.10
2019-01-28T23:48:16.140Z,2.00
2019-01-28T23:50:45.675Z,2.00
2019-01-28T23:53:15.187Z,1.90
2019-01-28T23:55:44.655Z,2.00
2019-01-28T23:58:14.484Z,2.00
